Time;durP1;ratioP1;P1;durP2;ratioP2;P2;SDS_P1;SDS_P2;PMS_P1;PMS_P2;Temp;Humidity;BMP_temperature;BMP_pressure;BME280_temperature;BME280_humidity;BME280_pressure;Samples;Min_cycle;Max_cycle;Signal;HPM_P1;HPM_P2
2023/06/14 00:00:11;;;;;;;4.53;3.85;;;;;;;17.89;100.00;94535.19;5014469;28;20149;-86
2023/06/14 00:02:39;;;;;;;4.55;4.05;;;;;;;17.93;100.00;94544.22;5011509;28;20168;-86
2023/06/14 00:05:05;;;;;;;4.70;4.18;;;;;;;17.77;100.00;94510.63;5010353;28;20646;-86
2023/06/14 00:07:42;;;;;;;12.68;4.50;;;;;;;17.96;100.00;94543.69;5002079;28;20200;-85
2023/06/14 00:10:09;;;;;;;7.07;3.90;;;;;;;17.79;100.00;94517.31;5010358;28;20180;-86
2023/06/14 00:12:36;;;;;;;4.10;3.50;;;;;;;17.93;100.00;94539.69;4991820;28;20285;-86
2023/06/14 00:15:01;;;;;;;5.53;4.65;;;;;;;17.81;100.00;94519.72;4993076;28;20173;-86
2023/06/14 00:17:31;;;;;;;4.20;3.80;;;;;;;17.82;100.00;94518.63;4993594;28;20184;-87
2023/06/14 00:20:00;;;;;;;8.65;4.00;;;;;;;17.94;100.00;94535.16;5009286;28;20671;-84
2023/06/14 00:22:25;;;;;;;7.93;4.32;;;;;;;17.93;100.00;94541.56;4994411;28;20773;-85
2023/06/14 00:24:51;;;;;;;7.55;4.28;;;;;;;17.91;100.00;94535.69;4994120;28;20168;-85
2023/06/14 00:27:17;;;;;;;6.43;4.10;;;;;;;17.85;100.00;94512.78;4992909;28;20165;-85
2023/06/14 00:29:43;;;;;;;5.10;3.63;;;;;;;17.94;100.00;94537.84;4994359;28;20173;-85
2023/06/14 00:32:08;;;;;;;7.65;4.60;;;;;;;17.92;100.00;94523.97;4994252;28;20236;-85
2023/06/14 00:34:34;;;;;;;5.43;4.43;;;;;;;17.63;100.00;94486.41;4992643;28;20231;-84
2023/06/14 00:37:00;;;;;;;6.10;4.40;;;;;;;17.82;100.00;94519.44;4993957;28;20158;-84
2023/06/14 00:39:25;;;;;;;4.43;3.90;;;;;;;17.86;100.00;94517.03;4992912;28;20232;-84
2023/06/14 00:41:51;;;;;;;5.88;4.85;;;;;;;17.84;100.00;94511.19;4993821;28;20256;-84
2023/06/14 00:44:17;;;;;;;5.47;4.50;;;;;;;17.70;100.00;94486.94;5008824;28;20307;-84
2023/06/14 00:46:45;;;;;;;7.05;4.35;;;;;;;17.81;100.00;94506.41;4996633;28;20222;-85
2023/06/14 00:49:15;;;;;;;6.55;3.95;;;;;;;17.75;100.00;94500.25;5000322;28;20169;-84
2023/06/14 00:51:41;;;;;;;4.43;3.45;;;;;;;17.88;100.00;94520.25;5001309;28;20177;-85
2023/06/14 00:54:06;;;;;;;7.03;5.20;;;;;;;17.74;100.00;94503.97;5001172;28;20189;-85
2023/06/14 00:56:32;;;;;;;7.57;4.03;;;;;;;17.80;100.00;94507.47;5011279;28;20231;-85
2023/06/14 00:58:58;;;;;;;5.07;3.83;;;;;;;17.88;100.00;94513.06;5012968;28;21087;-85
2023/06/14 01:01:23;;;;;;;3.55;3.25;;;;;;;17.73;100.00;94495.19;5013071;28;20169;-84
2023/06/14 01:03:51;;;;;;;5.72;4.18;;;;;;;17.74;100.00;94488.00;5013088;28;20184;-85
2023/06/14 01:06:29;;;;;;;7.97;3.65;;;;;;;17.92;100.00;94515.97;5013006;28;20178;-85
2023/06/14 01:09:10;;;;;;;6.70;4.18;;;;;;;17.90;100.00;94513.59;5013174;28;20164;-85
2023/06/14 01:11:44;;;;;;;7.25;4.65;;;;;;;17.89;100.00;94517.34;5013492;28;20222;-85
2023/06/14 01:14:12;;;;;;;4.35;3.95;;;;;;;17.73;100.00;94489.84;5011565;28;20629;-86
2023/06/14 01:16:39;;;;;;;6.00;3.88;;;;;;;17.88;100.00;94515.72;5013195;28;20210;-85
2023/06/14 01:19:06;;;;;;;11.32;4.15;;;;;;;17.64;100.00;94477.34;5011503;28;20187;-85
2023/06/14 01:21:41;;;;;;;6.32;3.95;;;;;;;17.91;100.00;94514.38;5013069;28;20156;-85
2023/06/14 01:24:07;;;;;;;4.07;3.58;;;;;;;17.89;100.00;94498.69;5011526;28;20164;-85
2023/06/14 01:26:32;;;;;;;5.30;3.70;;;;;;;17.91;100.00;94509.06;5011369;28;20176;-85
2023/06/14 01:28:58;;;;;;;4.22;3.60;;;;;;;17.72;100.00;94484.81;5012941;28;20160;-85
2023/06/14 01:31:25;;;;;;;9.35;4.40;;;;;;;17.58;100.00;94459.72;5012533;28;20608;-85
2023/06/14 01:33:51;;;;;;;7.53;3.88;;;;;;;17.81;100.00;94506.41;5012509;28;20755;-85
2023/06/14 01:36:19;;;;;;;5.78;4.57;;;;;;;17.55;100.00;94462.94;5011270;28;20256;-85
2023/06/14 01:38:48;;;;;;;4.53;4.00;;;;;;;17.77;100.00;94495.47;5012541;28;20153;-85
2023/06/14 01:41:15;;;;;;;5.85;3.95;;;;;;;17.52;100.00;94466.91;5012564;28;20622;-86
2023/06/14 01:43:42;;;;;;;7.60;4.30;;;;;;;17.53;100.00;94479.16;5012715;28;20168;-86
2023/06/14 01:46:09;;;;;;;5.00;4.30;;;;;;;17.70;100.00;94513.56;5012530;28;20165;-85
2023/06/14 01:48:34;;;;;;;6.03;4.63;;;;;;;17.59;100.00;94495.94;5027526;28;20562;-85
2023/06/14 01:51:00;;;;;;;5.40;4.40;;;;;;;17.65;100.00;94502.88;5011986;28;20164;-86
2023/06/14 01:53:25;;;;;;;8.95;4.55;;;;;;;17.49;100.00;94483.38;5012572;28;20250;-85
2023/06/14 01:55:54;;;;;;;8.35;4.00;;;;;;;17.39;100.00;94463.94;5002951;28;20702;-85
2023/06/14 01:58:19;;;;;;;7.22;4.15;;;;;;;17.63;100.00;94505.84;4992697;28;20256;-85
2023/06/14 02:00:45;;;;;;;7.05;4.47;;;;;;;17.70;100.00;94510.91;4992671;28;20295;-85
2023/06/14 02:03:11;;;;;;;8.38;4.65;;;;;;;17.73;100.00;94516.47;4992677;28;20630;-85
2023/06/14 02:05:38;;;;;;;6.20;4.05;;;;;;;17.67;100.00;94509.56;4992886;28;20173;-85
2023/06/14 02:08:04;;;;;;;5.15;4.50;;;;;;;17.52;100.00;94484.75;4992912;28;20157;-85
2023/06/14 02:10:29;;;;;;;6.93;4.45;;;;;;;17.51;100.00;94486.59;4992849;28;20215;-85
2023/06/14 02:12:55;;;;;;;7.80;4.50;;;;;;;17.62;100.00;94509.56;4992326;28;20649;-85
2023/06/14 02:15:21;;;;;;;14.65;5.00;;;;;;;17.73;100.00;94530.88;4999668;28;20172;-85
2023/06/14 02:17:49;;;;;;;4.70;4.15;;;;;;;17.82;100.00;94545.25;5001786;28;20164;-89
2023/06/14 02:20:14;;;;;;;11.68;5.05;;;;;;;17.60;100.00;94503.66;5001270;28;20195;-89
2023/06/14 02:22:40;;;;;;;4.55;4.10;;;;;;;17.84;100.00;94545.78;5021141;28;20614;-88
2023/06/14 02:25:06;;;;;;;4.03;3.63;;;;;;;17.82;100.00;94550.59;5010851;28;20278;-89
2023/06/14 02:27:31;;;;;;;5.85;4.65;;;;;;;17.52;100.00;94517.47;5010901;28;20161;-89
2023/06/14 02:29:57;;;;;;;7.50;4.70;;;;;;;17.50;100.00;94505.50;5021023;28;20172;-88
2023/06/14 02:32:22;;;;;;;5.93;4.30;;;;;;;17.68;100.00;94540.44;5019003;28;20268;-88
2023/06/14 02:34:49;;;;;;;4.25;3.85;;;;;;;17.71;100.00;94545.25;5002700;28;20173;-88
2023/06/14 02:37:16;;;;;;;4.32;3.55;;;;;;;17.73;100.00;94541.53;5001765;28;20177;-88
2023/06/14 02:39:41;;;;;;;4.03;3.63;;;;;;;17.41;100.00;94486.56;4990998;28;20173;-88
2023/06/14 02:42:07;;;;;;;4.50;3.88;;;;;;;17.57;100.00;94514.81;4992622;28;20168;-89
2023/06/14 02:44:32;;;;;;;4.28;3.83;;;;;;;17.73;100.00;94542.31;4992354;28;20769;-89
2023/06/14 02:46:58;;;;;;;5.13;4.30;;;;;;;17.62;100.00;94527.38;4992367;28;20240;-89
2023/06/14 02:49:24;;;;;;;6.03;3.92;;;;;;;17.73;100.00;94544.97;4992313;28;20177;-88
2023/06/14 02:51:49;;;;;;;5.40;3.85;;;;;;;17.65;100.00;94526.84;5007312;28;20162;-88
2023/06/14 02:54:14;;;;;;;11.57;4.05;;;;;;;17.43;100.00;94488.97;4992408;28;20189;-88
2023/06/14 02:56:40;;;;;;;4.85;4.00;;;;;;;17.43;100.00;94537.69;4990961;28;20432;-88
2023/06/14 02:59:07;;;;;;;5.30;4.32;;;;;;;17.24;100.00;94529.34;4996816;28;20744;-91
2023/06/14 03:01:40;;;;;;;5.88;3.92;;;;;;;17.29;100.00;94528.59;5000001;28;20169;-91
2023/06/14 03:04:07;;;;;;;4.82;4.00;;;;;;;17.49;100.00;94547.28;5007559;28;20223;-91
2023/06/14 03:06:33;;;;;;;8.77;4.55;;;;;;;17.15;100.00;94496.31;5001143;28;20191;-91
2023/06/14 03:08:59;;;;;;;8.30;6.15;;;;;;;17.52;100.00;94554.75;4994726;28;20561;-91
2023/06/14 03:11:26;;;;;;;7.75;5.05;;;;;;;17.29;100.00;94521.41;4994611;28;20220;-91
2023/06/14 03:13:52;;;;;;;6.32;5.63;;;;;;;17.62;100.00;94564.66;4994358;28;20211;-90
2023/06/14 03:16:32;;;;;;;5.97;4.30;;;;;;;17.58;100.00;94552.88;4994315;28;20222;-90
2023/06/14 03:18:58;;;;;;;4.63;3.80;;;;;;;17.32;100.00;94514.75;4994451;28;20165;-91
2023/06/14 03:21:23;;;;;;;4.75;3.83;;;;;;;17.48;100.00;94535.03;4998915;28;20223;-91
2023/06/14 03:23:49;;;;;;;6.40;4.60;;;;;;;17.50;100.00;94532.91;4999761;28;20173;-88
2023/06/14 03:26:17;;;;;;;5.18;3.83;;;;;;;17.56;100.00;94539.03;4999808;28;20638;-83
2023/06/14 03:28:47;;;;;;;6.32;4.25;;;;;;;17.73;100.00;94563.59;5001548;28;20247;-84
2023/06/14 03:31:13;;;;;;;4.57;3.85;;;;;;;17.78;100.00;94568.97;5000488;28;20169;-84
2023/06/14 03:33:39;;;;;;;5.03;4.18;;;;;;;17.74;100.00;94578.53;5021789;28;20202;-87
2023/06/14 03:36:06;;;;;;;7.47;3.90;;;;;;;17.60;100.00;94553.44;5014712;28;20634;-88
2023/06/14 03:38:32;;;;;;;8.55;4.38;;;;;;;17.65;100.00;94550.81;5014484;28;20164;-87
2023/06/14 03:40:57;;;;;;;5.13;4.38;;;;;;;17.63;100.00;94558.28;5014320;28;20267;-88
2023/06/14 03:43:23;;;;;;;6.20;4.30;;;;;;;17.69;100.00;94560.69;5003229;28;20291;-86
2023/06/14 03:45:48;;;;;;;7.85;3.95;;;;;;;17.57;100.00;94530.00;5011782;28;20577;-85
2023/06/14 03:48:13;;;;;;;5.03;4.22;;;;;;;17.87;100.00;94566.59;5014607;28;20164;-86
2023/06/14 03:50:39;;;;;;;5.78;4.40;;;;;;;17.64;100.00;94535.91;5014244;28;20187;-86
2023/06/14 03:53:04;;;;;;;8.07;4.53;;;;;;;17.78;100.00;94557.50;5014550;28;20188;-86
2023/06/14 03:55:31;;;;;;;6.95;4.30;;;;;;;17.87;100.00;94569.25;5014239;28;20160;-83
2023/06/14 03:57:57;;;;;;;5.22;4.15;;;;;;;17.69;100.00;94552.69;5029361;28;20783;-84
2023/06/14 04:00:23;;;;;;;7.57;4.45;;;;;;;17.77;100.00;94558.56;5029370;28;20180;-87
2023/06/14 04:02:48;;;;;;;5.22;3.22;;;;;;;17.88;100.00;94579.66;5007414;28;20241;-88
2023/06/14 04:05:16;;;;;;;6.18;3.58;;;;;;;17.90;100.00;94580.16;5002372;28;20177;-90
2023/06/14 04:07:45;;;;;;;7.22;4.60;;;;;;;17.90;100.00;94579.38;5002798;28;20172;-88
2023/06/14 04:10:12;;;;;;;4.68;3.75;;;;;;;17.71;100.00;94539.13;5001417;28;20674;-88
2023/06/14 04:12:38;;;;;;;4.00;3.60;;;;;;;17.71;100.00;94539.94;4994193;28;20231;-87
2023/06/14 04:15:06;;;;;;;6.47;4.20;;;;;;;17.93;100.00;94554.88;4996707;28;20200;-86
2023/06/14 04:17:32;;;;;;;4.55;4.07;;;;;;;17.89;100.00;94543.16;5008571;28;20247;-81
2023/06/14 04:20:04;;;;;;;5.28;4.63;;;;;;;17.91;100.00;94528.50;4975510;28;20630;-86
2023/06/14 04:22:30;;;;;;;6.50;4.38;;;;;;;17.94;100.00;94511.19;4974826;28;20173;-86
2023/06/14 04:24:56;;;;;;;6.65;4.18;;;;;;;18.04;98.88;94498.69;5004929;28;20581;-85
2023/06/14 04:27:26;;;;;;;7.47;4.30;;;;;;;18.69;98.04;94581.59;5007235;28;20169;-85
2023/06/14 04:29:59;;;;;;;4.50;3.88;;;;;;;18.78;96.25;94580.78;5003269;28;20263;-86
2023/06/14 04:32:29;;;;;;;7.78;4.72;;;;;;;18.62;95.62;94525.88;5014259;28;20233;-91
2023/06/14 04:34:55;;;;;;;8.07;5.68;;;;;;;19.29;96.08;94579.91;4999407;28;20935;-90
2023/06/14 04:37:24;;;;;;;8.45;5.60;;;;;;;19.46;94.21;94581.16;4999360;28;20169;-90
2023/06/14 04:39:51;;;;;;;7.30;4.25;;;;;;;19.49;92.84;94563.84;5000941;28;20184;-87
2023/06/14 04:42:20;;;;;;;4.30;3.83;;;;;;;19.61;91.32;94560.88;5002144;28;20173;-83
2023/06/14 04:44:47;;;;;;;8.70;4.57;;;;;;;19.77;90.32;94557.84;5003375;28;20172;-86
2023/06/14 04:47:14;;;;;;;6.82;3.80;;;;;;;20.17;91.71;94586.19;5012983;28;20175;-84
2023/06/14 04:49:40;;;;;;;5.28;3.85;;;;;;;20.45;90.71;94587.38;5013101;28;20679;-84
2023/06/14 04:52:06;;;;;;;6.43;3.95;;;;;;;20.74;89.93;94592.78;5007293;28;20184;-84
2023/06/14 04:54:33;;;;;;;5.70;3.88;;;;;;;20.81;88.32;94579.88;5001323;28;20181;-85
2023/06/14 04:56:59;;;;;;;10.50;4.00;;;;;;;20.63;85.51;94551.13;5009430;28;20188;-83
2023/06/14 04:59:25;;;;;;;4.35;3.80;;;;;;;20.90;85.26;94585.41;5008882;28;20638;-86
2023/06/14 05:01:51;;;;;;;5.40;4.03;;;;;;;21.16;85.73;94602.03;5001141;28;20683;-83
2023/06/14 05:04:17;;;;;;;6.40;4.15;;;;;;;20.86;82.64;94561.09;5001876;28;20173;-83
2023/06/14 05:06:54;;;;;;;5.25;3.95;;;;;;;21.18;83.44;94610.63;5003782;28;20174;-82
2023/06/14 05:09:20;;;;;;;8.35;4.35;;;;;;;21.16;83.96;94613.56;5006718;28;20254;-82
2023/06/14 05:11:45;;;;;;;6.57;4.40;;;;;;;20.88;82.61;94585.69;5003945;28;20629;-82
2023/06/14 05:14:11;;;;;;;8.90;4.93;;;;;;;20.89;81.34;94600.69;5001676;28;20206;-81
2023/06/14 05:16:37;;;;;;;6.35;4.65;;;;;;;20.90;83.46;94594.25;5002511;28;20207;-83
2023/06/14 05:19:04;;;;;;;5.43;4.78;;;;;;;20.90;82.58;94604.16;4999384;28;20287;-83
2023/06/14 05:21:29;;;;;;;6.72;4.68;;;;;;;20.91;82.12;94621.81;5000053;28;20183;-86
2023/06/14 05:23:55;;;;;;;9.43;4.75;;;;;;;20.75;83.40;94590.91;5003202;28;20168;-87
2023/06/14 05:26:23;;;;;;;9.20;4.93;;;;;;;21.05;84.38;94631.56;4997997;28;20265;-85
2023/06/14 05:28:50;;;;;;;6.03;4.63;;;;;;;20.94;84.12;94600.63;4998428;28;20172;-86
2023/06/14 05:31:15;;;;;;;7.05;4.40;;;;;;;21.12;83.67;94636.59;5002492;28;21051;-86
2023/06/14 05:33:41;;;;;;;6.32;5.35;;;;;;;21.12;83.43;94639.28;5003533;28;20226;-83
2023/06/14 05:36:06;;;;;;;6.05;4.85;;;;;;;20.90;82.96;94612.19;5015376;28;20181;-83
2023/06/14 05:38:31;;;;;;;5.70;4.50;;;;;;;20.96;84.00;94629.78;5001863;28;20172;-84
2023/06/14 05:40:57;;;;;;;8.77;5.53;;;;;;;20.90;84.75;94628.25;5005750;28;20668;-84
2023/06/14 05:43:22;;;;;;;8.15;5.18;;;;;;;20.85;84.33;94636.28;5012366;28;20211;-86
2023/06/14 05:45:48;;;;;;;7.25;5.15;;;;;;;20.51;84.11;94593.50;5012388;28;20192;-83
2023/06/14 05:48:13;;;;;;;11.52;5.50;;;;;;;20.78;85.53;94638.50;4994364;28;20184;-84
2023/06/14 05:50:38;;;;;;;6.10;4.97;;;;;;;20.59;86.24;94608.94;4991574;28;20165;-87
2023/06/14 05:53:04;;;;;;;7.95;4.53;;;;;;;20.60;85.24;94605.19;4994956;28;20224;-87
2023/06/14 05:55:29;;;;;;;6.45;4.45;;;;;;;20.49;84.72;94595.66;4998693;28;20264;-89
2023/06/14 05:57:55;;;;;;;5.68;4.25;;;;;;;19.98;85.94;94518.44;5018244;28;20224;-81
2023/06/14 06:00:21;;;;;;;7.22;5.20;;;;;;;20.80;86.31;94647.06;5015600;28;20677;-82
2023/06/14 06:02:47;;;;;;;10.25;5.35;;;;;;;20.63;85.26;94634.88;5003565;28;20969;-82
2023/06/14 06:05:13;;;;;;;9.07;5.75;;;;;;;20.49;86.77;94611.72;5004269;28;20177;-90
2023/06/14 06:07:42;;;;;;;9.50;5.75;;;;;;;20.70;87.12;94653.28;5010959;28;20246;-85
2023/06/14 06:10:08;;;;;;;8.75;5.47;;;;;;;20.57;86.67;94632.50;5004407;28;20177;-85
2023/06/14 06:12:33;;;;;;;11.10;5.90;;;;;;;20.68;88.28;94647.41;4992759;28;20188;-85
2023/06/14 06:14:59;;;;;;;7.72;5.65;;;;;;;20.70;87.80;94653.28;4992488;28;20183;-85
2023/06/14 06:17:25;;;;;;;6.50;5.53;;;;;;;20.65;86.88;94648.78;4992530;28;20315;-85
2023/06/14 06:19:51;;;;;;;7.40;5.90;;;;;;;20.71;86.46;94654.88;4993057;28;20161;-86
2023/06/14 06:22:17;;;;;;;7.47;5.88;;;;;;;20.34;86.37;94604.56;4992774;28;20268;-85
2023/06/14 06:24:42;;;;;;;11.05;5.47;;;;;;;20.50;86.95;94640.81;4992468;28;20173;-85
2023/06/14 06:27:08;;;;;;;10.63;6.28;;;;;;;20.59;87.26;94659.75;4992408;28;20158;-86
2023/06/14 06:29:33;;;;;;;11.85;5.80;;;;;;;20.53;87.82;94650.97;4992389;28;20196;-85
2023/06/14 06:31:59;;;;;;;7.45;5.60;;;;;;;20.53;87.66;94648.31;4992405;28;20248;-85
2023/06/14 06:34:24;;;;;;;9.15;5.80;;;;;;;20.54;87.53;94657.94;4992142;28;20617;-85
2023/06/14 06:36:50;;;;;;;12.30;6.20;;;;;;;20.41;87.74;94641.72;4993206;28;20153;-86
2023/06/14 06:39:16;;;;;;;12.18;5.88;;;;;;;20.50;88.90;94646.19;4994838;28;20219;-86
2023/06/14 06:41:41;;;;;;;10.48;6.18;;;;;;;20.68;88.33;94664.25;4995811;28;20181;-86
2023/06/14 06:44:07;;;;;;;9.02;5.93;;;;;;;20.75;87.64;94663.97;4994796;28;20181;-86
2023/06/14 06:46:33;;;;;;;15.00;7.15;;;;;;;20.62;88.04;94625.25;4996007;28;20157;-86
2023/06/14 06:49:00;;;;;;;8.82;6.72;;;;;;;20.81;88.48;94637.94;4995585;28;20254;-86
2023/06/14 06:51:26;;;;;;;9.25;5.72;;;;;;;20.72;85.35;94627.03;4996223;28;20149;-86
2023/06/14 06:53:55;;;;;;;11.00;7.00;;;;;;;20.96;83.84;94656.56;4994468;28;20235;-86
2023/06/14 06:56:23;;;;;;;12.77;6.68;;;;;;;20.97;84.05;94663.50;4995844;28;20168;-86
2023/06/14 06:58:49;;;;;;;9.23;6.97;;;;;;;21.36;86.94;94637.47;4995043;28;20264;-86
2023/06/14 07:01:15;;;;;;;10.38;5.97;;;;;;;22.03;84.16;94635.69;5006883;28;20709;-86
2023/06/14 07:03:41;;;;;;;12.40;7.20;;;;;;;22.80;81.95;94641.59;5003153;28;20245;-85
2023/06/14 07:06:06;;;;;;;13.60;7.05;;;;;;;23.75;75.45;94667.13;5003586;28;20169;-86
2023/06/14 07:08:32;;;;;;;10.15;6.78;;;;;;;24.07;74.09;94671.59;5003598;28;20270;-86
2023/06/14 07:10:57;;;;;;;11.77;6.20;;;;;;;23.96;73.01;94638.72;5003492;28;20168;-86
2023/06/14 07:13:23;;;;;;;13.82;7.40;;;;;;;23.52;70.43;94607.09;5003168;28;20711;-85
2023/06/14 07:15:48;;;;;;;11.70;7.70;;;;;;;23.65;71.21;94680.75;5005980;28;20176;-88
2023/06/14 07:18:13;;;;;;;11.20;6.75;;;;;;;23.53;73.76;94656.22;5004821;28;20172;-88
2023/06/14 07:20:40;;;;;;;9.38;6.45;;;;;;;23.85;73.99;94668.81;5018690;28;20201;-87
2023/06/14 07:23:05;;;;;;;16.48;7.45;;;;;;;24.09;73.86;94655.97;4995831;28;20188;-86
2023/06/14 07:25:31;;;;;;;10.73;6.90;;;;;;;24.66;73.34;94665.25;4995262;28;20173;-84
2023/06/14 07:27:56;;;;;;;9.30;7.13;;;;;;;24.51;69.60;94625.22;5010336;28;20172;-85
2023/06/14 07:30:25;;;;;;;12.68;6.45;;;;;;;24.60;67.39;94644.94;4995273;28;20154;-87
2023/06/14 07:32:52;;;;;;;13.10;8.68;;;;;;;24.41;67.00;94647.78;4995378;28;20247;-87
2023/06/14 07:35:17;;;;;;;12.60;7.88;;;;;;;24.12;68.62;94641.94;4993740;28;20187;-88
2023/06/14 07:37:43;;;;;;;15.05;8.75;;;;;;;23.61;68.97;94605.28;4993715;28;20169;-89
2023/06/14 07:40:10;;;;;;;15.25;7.75;;;;;;;23.44;71.31;94629.22;4993783;28;20208;-88
2023/06/14 07:42:35;;;;;;;12.70;8.18;;;;;;;23.34;71.71;94658.97;4995052;28;20158;-88
2023/06/14 07:45:02;;;;;;;20.33;9.45;;;;;;;22.92;72.64;94630.38;4993654;28;20239;-87
2023/06/14 07:47:28;;;;;;;15.82;8.43;;;;;;;22.76;72.83;94647.81;4992870;28;20555;-87
2023/06/14 07:49:53;;;;;;;15.10;8.52;;;;;;;22.45;73.71;94617.94;4994932;28;20191;-89
2023/06/14 07:52:18;;;;;;;11.07;7.45;;;;;;;22.50;74.58;94647.38;4994805;28;20176;-88
2023/06/14 07:54:44;;;;;;;14.77;8.57;;;;;;;22.60;73.90;94682.13;4997016;28;20171;-86
2023/06/14 07:57:09;;;;;;;15.90;8.40;;;;;;;22.69;76.08;94674.22;5006544;28;20188;-86
2023/06/14 07:59:35;;;;;;;11.85;7.82;;;;;;;22.67;75.20;94655.72;5006091;28;20603;-86
2023/06/14 08:02:01;;;;;;;12.02;8.00;;;;;;;23.04;76.45;94681.75;5002906;28;20181;-86
2023/06/14 08:04:26;;;;;;;10.85;6.90;;;;;;;23.36;76.33;94680.94;5004192;28;20168;-85
2023/06/14 08:06:51;;;;;;;8.73;6.55;;;;;;;23.77;76.18;94674.91;5005102;28;20187;-86
2023/06/14 08:09:17;;;;;;;10.60;8.05;;;;;;;24.07;75.14;94669.72;5002716;28;20161;-82
2023/06/14 08:11:42;;;;;;;12.43;9.07;;;;;;;24.39;70.88;94694.91;5003853;28;20187;-83
2023/06/14 08:14:08;;;;;;;16.02;8.90;;;;;;;24.33;70.37;94696.13;5001893;28;20630;-82
2023/06/14 08:17:10;;;;;;;15.63;8.73;;;;;;;24.17;69.62;94701.00;5002250;28;20165;-82
2023/06/14 08:19:36;;;;;;;10.73;8.13;;;;;;;23.99;69.79;94689.25;4990543;28;20220;-83
2023/06/14 08:22:02;;;;;;;17.52;8.75;;;;;;;23.56;69.20;94693.28;5007967;28;20195;-82
2023/06/14 08:24:27;;;;;;;11.18;9.23;;;;;;;23.30;70.90;94703.63;5013695;28;20160;-82
2023/06/14 08:26:53;;;;;;;12.80;8.07;;;;;;;23.13;72.87;94665.78;5011393;28;20215;-82
2023/06/14 08:29:19;;;;;;;10.38;7.35;;;;;;;23.50;74.88;94702.53;5006965;28;20177;-83
2023/06/14 08:31:45;;;;;;;12.45;8.10;;;;;;;23.65;72.83;94696.88;5000606;28;20192;-82
2023/06/14 08:34:10;;;;;;;17.17;8.80;;;;;;;23.80;72.86;94701.16;5004418;28;20212;-82
2023/06/14 08:36:36;;;;;;;10.20;8.13;;;;;;;23.84;73.44;94694.91;5002007;28;20177;-84
2023/06/14 08:39:02;;;;;;;12.43;8.73;;;;;;;23.99;73.34;94699.19;4999214;28;20176;-84
2023/06/14 08:41:29;;;;;;;12.55;7.85;;;;;;;23.98;69.47;94692.22;5002091;28;20256;-85
2023/06/14 08:43:55;;;;;;;9.65;7.00;;;;;;;23.94;72.25;94678.59;5004524;28;20222;-85
2023/06/14 08:46:22;;;;;;;13.05;8.32;;;;;;;24.25;68.97;94691.44;5001397;28;20196;-81
2023/06/14 08:48:52;;;;;;;13.68;8.07;;;;;;;24.47;69.61;94682.66;5004044;28;20176;-87
2023/06/14 08:51:21;;;;;;;11.65;8.35;;;;;;;24.61;70.07;94659.19;5005018;28;20173;-82
2023/06/14 08:53:52;;;;;;;10.25;7.70;;;;;;;25.06;66.67;94701.28;4999992;28;20205;-82
2023/06/14 08:56:18;;;;;;;11.75;7.85;;;;;;;24.80;65.90;94668.72;4993566;28;20165;-86
2023/06/14 08:58:45;;;;;;;15.25;7.85;;;;;;;25.07;65.91;94689.41;4996185;28;20355;-83
2023/06/14 09:01:16;;;;;;;12.10;7.22;;;;;;;25.06;65.97;94676.22;5019475;28;20551;-83
2023/06/14 09:03:42;;;;;;;12.52;7.60;;;;;;;25.26;66.53;94691.88;5002881;28;20169;-83
2023/06/14 09:06:13;;;;;;;9.70;7.05;;;;;;;25.24;65.91;94674.47;5003215;28;20208;-85
2023/06/14 09:08:44;;;;;;;12.48;7.75;;;;;;;25.23;63.87;94679.03;4999744;28;20183;-87
2023/06/14 09:11:14;;;;;;;9.70;7.47;;;;;;;24.89;63.69;94649.94;5005811;28;20192;-85
2023/06/14 09:13:40;;;;;;;11.23;7.40;;;;;;;24.91;64.17;94681.94;5011494;28;20636;-85
2023/06/14 09:16:06;;;;;;;12.57;7.72;;;;;;;24.78;64.93;94675.50;4995781;28;20173;-85
2023/06/14 09:18:44;;;;;;;15.52;7.63;;;;;;;24.64;64.56;94666.69;4991850;28;20267;-85
2023/06/14 09:21:10;;;;;;;10.93;7.07;;;;;;;24.28;66.45;94626.28;4993157;28;20309;-85
2023/06/14 09:23:38;;;;;;;9.77;6.78;;;;;;;24.58;67.45;94667.88;4991577;28;20173;-85
2023/06/14 09:26:13;;;;;;;11.93;7.15;;;;;;;24.55;67.27;94655.81;4996200;28;20176;-85
2023/06/14 09:28:45;;;;;;;9.18;6.57;;;;;;;24.41;67.67;94631.63;4999594;28;20230;-85
2023/06/14 09:31:16;;;;;;;10.50;7.07;;;;;;;24.68;68.46;94664.94;5001008;28;20169;-85
2023/06/14 09:33:48;;;;;;;11.07;6.72;;;;;;;24.58;68.45;94649.03;5010650;28;20593;-85
2023/06/14 09:36:23;;;;;;;11.05;8.00;;;;;;;24.72;66.95;94674.03;4973171;28;20542;-85
2023/06/14 09:38:53;;;;;;;10.70;7.80;;;;;;;24.25;64.68;94622.28;4992905;28;20165;-85
2023/06/14 09:41:18;;;;;;;12.32;7.60;;;;;;;24.38;68.45;94651.09;4998669;28;20180;-85
2023/06/14 09:43:46;;;;;;;9.95;7.00;;;;;;;24.27;69.01;94630.06;4997391;28;20663;-85
2023/06/14 09:46:13;;;;;;;9.27;6.80;;;;;;;24.35;67.86;94653.56;4996582;28;20189;-85
2023/06/14 09:48:42;;;;;;;13.50;8.10;;;;;;;23.79;67.46;94570.50;5000949;28;20184;-85
2023/06/14 09:51:10;;;;;;;11.00;7.38;;;;;;;24.14;66.38;94655.84;4993868;28;20173;-86
2023/06/14 09:53:36;;;;;;;9.77;6.90;;;;;;;24.14;67.31;94650.47;4999051;28;20197;-86
2023/06/14 09:56:04;;;;;;;14.02;7.97;;;;;;;23.87;67.64;94605.56;4996431;28;20169;-86
2023/06/14 09:58:32;;;;;;;14.63;7.63;;;;;;;23.92;69.33;94608.16;5016953;28;20856;-86
2023/06/14 10:00:59;;;;;;;10.57;7.22;;;;;;;24.03;70.50;94609.56;5015617;28;20184;-86
2023/06/14 10:03:28;;;;;;;10.40;7.32;;;;;;;24.29;66.85;94630.56;5001919;28;20168;-86
2023/06/14 10:05:55;;;;;;;9.38;7.30;;;;;;;24.55;66.72;94644.25;5000018;28;20680;-86
2023/06/14 10:08:25;;;;;;;13.75;8.88;;;;;;;24.60;65.23;94638.75;4998955;28;20177;-86
2023/06/14 10:10:51;;;;;;;12.45;7.82;;;;;;;24.61;70.33;94608.84;5019221;28;20187;-86
2023/06/14 10:13:17;;;;;;;10.68;7.28;;;;;;;24.63;66.63;94592.38;5005802;28;20203;-86
2023/06/14 10:16:00;;;;;;;12.25;8.05;;;;;;;24.92;66.77;94632.38;5001410;28;20284;-86
2023/06/14 10:18:43;;;;;;;11.02;7.75;;;;;;;24.94;67.81;94605.94;4999750;28;20255;-86
2023/06/14 10:21:21;;;;;;;11.50;7.63;;;;;;;24.99;67.53;94582.38;5002405;28;20176;-86
2023/06/14 10:23:48;;;;;;;10.48;8.57;;;;;;;25.48;68.33;94613.72;5000663;28;20184;-86
2023/06/14 10:26:22;;;;;;;11.18;7.53;;;;;;;25.67;66.67;94626.19;5002571;28;20168;-86
2023/06/14 10:29:09;;;;;;;10.10;7.18;;;;;;;25.75;65.11;94620.03;4999988;28;20185;-86
2023/06/14 10:31:42;;;;;;;11.43;7.28;;;;;;;25.82;67.75;94612.28;5004603;28;20226;-86
2023/06/14 10:34:07;;;;;;;13.23;8.90;;;;;;;25.64;61.88;94592.53;5000099;28;20559;-86
2023/06/14 10:36:36;;;;;;;10.65;7.97;;;;;;;25.64;61.56;94619.50;5010739;28;20173;-86
2023/06/14 10:39:16;;;;;;;9.35;7.60;;;;;;;25.41;62.14;94612.56;4997866;28;20185;-86
2023/06/14 10:41:52;;;;;;;10.85;8.00;;;;;;;24.86;64.62;94571.63;5002977;28;20173;-87
2023/06/14 10:44:17;;;;;;;9.85;7.50;;;;;;;25.11;63.21;94600.66;5001416;28;20164;-87
2023/06/14 10:46:47;;;;;;;14.02;8.02;;;;;;;24.95;63.64;94586.78;5001627;28;20181;-87
2023/06/14 10:49:17;;;;;;;10.68;8.07;;;;;;;24.91;62.11;94585.00;5002755;28;20157;-87
2023/06/14 10:51:48;;;;;;;8.63;7.25;;;;;;;24.92;62.53;94608.94;5025615;28;20168;-88
2023/06/14 10:54:14;;;;;;;10.75;7.95;;;;;;;24.54;63.17;94559.22;5015191;28;20191;-87
2023/06/14 10:56:47;;;;;;;10.88;7.72;;;;;;;24.49;62.62;94553.94;5015076;28;20168;-87
2023/06/14 10:59:12;;;;;;;12.85;7.40;;;;;;;24.58;65.39;94554.81;5030427;28;20319;-87
2023/06/14 11:01:58;;;;;;;16.85;8.15;;;;;;;24.55;63.64;94556.22;5015163;28;20276;-87
2023/06/14 11:04:46;;;;;;;9.98;7.90;;;;;;;24.67;63.35;94536.81;5013801;28;20196;-86
2023/06/14 11:07:24;;;;;;;10.00;7.57;;;;;;;24.65;64.03;94512.88;5008157;28;20204;-87
2023/06/14 11:10:21;;;;;;;12.73;8.43;;;;;;;25.09;60.57;94573.22;5004279;28;20204;-88
2023/06/14 11:12:48;;;;;;;12.18;7.38;;;;;;;24.76;61.16;94521.50;4998603;28;20204;-85
2023/06/14 11:15:15;;;;;;;9.75;7.60;;;;;;;25.01;63.32;94569.38;5000617;28;20601;-87
2023/06/14 11:17:53;;;;;;;14.43;8.00;;;;;;;24.60;62.57;94536.44;4990985;28;20280;-87
2023/06/14 11:20:19;;;;;;;9.70;7.72;;;;;;;24.57;65.93;94570.16;4976022;28;20165;-85
2023/06/14 11:22:45;;;;;;;9.70;7.88;;;;;;;24.32;63.12;94516.91;4992507;28;20179;-84
2023/06/14 11:25:15;;;;;;;12.15;7.50;;;;;;;24.74;62.97;94574.88;4996256;28;20593;-85
2023/06/14 11:27:44;;;;;;;10.00;8.18;;;;;;;24.68;61.83;94560.75;4996470;28;20179;-84